Terminal Aerodrome Forecast
Issued by NWS

Home | Current Version | Previous Version | Text Only | Print | Product List | Glossary On
Versions: 1 2 3 4 5 6 7 8 9 10 11 12 13 14 15 16 17 18 19 20 21 22 23 24 25 26 27 28 29
084
FTUS41 KOKX 211933 AAB
TAFHPN
TAF AMD
KHPN 211933Z 2120/2218 17012KT P6SM FEW070
     FM220100 VRB02KT P6SM BKN120
     FM220900 VRB03KT P6SM FEW020 BKN040 OVC090 PROB30 2212/2215 5SM
      -RA OVC025
      AMD NOT SKED=

USA.gov is the U.S. government's official web portal to all federal, state and local government web resources and services.